Time;durP1;ratioP1;P1;durP2;ratioP2;P2;SDS_P1;SDS_P2;PMS_P1;PMS_P2;Temp;Humidity;BMP_temperature;BMP_pressure;BME280_temperature;BME280_humidity;BME280_pressure;Samples;Min_cycle;Max_cycle;Signal;HPM_P1;HPM_P2
2022/10/18 00:01:23;;;;;;;21.65;12.73;;;9.70;99.90;;;;;;4752765;30;20024;-74
2022/10/18 00:03:49;;;;;;;21.17;12.98;;;9.70;99.90;;;;;;4752702;30;20039;-73
2022/10/18 00:06:14;;;;;;;24.15;12.73;;;9.80;99.90;;;;;;4753521;30;20029;-75
2022/10/18 00:08:40;;;;;;;19.83;10.82;;;9.70;99.90;;;;;;4759760;30;20417;-75
2022/10/18 00:11:07;;;;;;;22.92;12.10;;;9.80;99.90;;;;;;4752959;30;20086;-76
2022/10/18 00:13:33;;;;;;;20.10;11.65;;;9.70;99.90;;;;;;4752607;30;20042;-74
2022/10/18 00:16:02;;;;;;;19.15;12.57;;;9.70;99.90;;;;;;4752510;30;20028;-73
2022/10/18 00:18:29;;;;;;;24.25;12.77;;;9.70;99.90;;;;;;4752487;30;20028;-73
2022/10/18 00:21:00;;;;;;;22.85;12.60;;;9.50;99.90;;;;;;4752544;30;20040;-73
2022/10/18 00:23:28;;;;;;;25.80;14.38;;;9.60;99.90;;;;;;4756661;30;20040;-73
2022/10/18 00:26:19;;;;;;;26.17;14.13;;;9.60;99.90;;;;;;4752320;30;20028;-73
2022/10/18 00:28:48;;;;;;;27.17;15.70;;;9.60;99.90;;;;;;4758032;30;20051;-73
2022/10/18 00:31:17;;;;;;;26.58;15.18;;;9.60;99.90;;;;;;4752809;30;20025;-73
2022/10/18 00:33:45;;;;;;;27.40;13.90;;;9.60;99.90;;;;;;4752381;30;20043;-74
2022/10/18 00:36:12;;;;;;;20.98;11.95;;;9.70;99.90;;;;;;4763313;30;20023;-74
2022/10/18 00:38:42;;;;;;;18.63;11.40;;;9.70;99.90;;;;;;4756195;30;20122;-74
2022/10/18 00:41:10;;;;;;;20.75;11.02;;;9.70;99.90;;;;;;4755082;30;20036;-74
2022/10/18 00:43:58;;;;;;;18.95;11.27;;;9.70;99.90;;;;;;4756170;30;20028;-77
2022/10/18 00:46:28;;;;;;;26.92;14.65;;;9.70;99.90;;;;;;4756729;29;20032;-75
2022/10/18 00:48:57;;;;;;;21.23;13.20;;;9.70;99.90;;;;;;4752143;30;20047;-74
2022/10/18 00:51:31;;;;;;;20.55;12.52;;;9.70;99.90;;;;;;4755387;30;20028;-74
2022/10/18 00:53:57;;;;;;;25.60;13.15;;;9.70;99.90;;;;;;4751758;30;20032;-76
2022/10/18 00:56:23;;;;;;;26.05;12.68;;;9.60;99.90;;;;;;4755563;30;20482;-76
2022/10/18 00:58:50;;;;;;;19.20;11.98;;;9.60;99.90;;;;;;4751824;30;20094;-74
2022/10/18 01:01:16;;;;;;;21.42;12.45;;;9.60;99.90;;;;;;4751936;30;20029;-75
2022/10/18 01:03:42;;;;;;;18.65;11.52;;;9.40;99.90;;;;;;4755543;30;20501;-76
2022/10/18 01:06:08;;;;;;;21.42;11.63;;;9.30;99.90;;;;;;4756067;30;20475;-74
2022/10/18 01:08:44;;;;;;;23.48;11.07;;;9.20;99.90;;;;;;4751677;30;20064;-74
2022/10/18 01:11:39;;;;;;;19.67;11.70;;;9.20;99.90;;;;;;4751786;30;20036;-75
2022/10/18 01:14:08;;;;;;;18.85;11.60;;;9.20;99.90;;;;;;4755487;30;20119;-74
2022/10/18 01:16:46;;;;;;;24.55;12.43;;;9.20;99.90;;;;;;4750249;30;20403;-75
2022/10/18 01:19:20;;;;;;;19.40;10.82;;;9.20;99.90;;;;;;4751867;30;20070;-74
2022/10/18 01:22:14;;;;;;;21.52;12.02;;;9.30;99.90;;;;;;4751406;30;20042;-73
2022/10/18 01:25:05;;;;;;;22.27;10.60;;;9.30;99.90;;;;;;4753392;30;20063;-76
2022/10/18 01:28:12;;;;;;;19.10;11.68;;;9.30;99.90;;;;;;4751311;30;20044;-74
2022/10/18 01:30:40;;;;;;;20.23;12.45;;;9.40;99.90;;;;;;4731429;30;20036;-75
2022/10/18 01:33:40;;;;;;;22.60;12.02;;;9.40;99.90;;;;;;4731768;30;20063;-75
2022/10/18 01:36:18;;;;;;;19.30;10.98;;;9.40;99.90;;;;;;4731431;30;20162;-74
2022/10/18 01:38:47;;;;;;;24.40;11.40;;;9.40;99.90;;;;;;4731369;30;20040;-73
2022/10/18 01:41:15;;;;;;;16.80;9.68;;;9.40;99.90;;;;;;4731650;30;20040;-74
2022/10/18 01:43:44;;;;;;;19.95;12.00;;;9.30;99.90;;;;;;4731366;30;20063;-74
2022/10/18 01:46:13;;;;;;;21.15;12.13;;;9.30;99.90;;;;;;4734926;30;20098;-73
2022/10/18 01:48:39;;;;;;;25.30;14.50;;;9.30;99.90;;;;;;4731164;30;20063;-73
2022/10/18 01:51:05;;;;;;;24.52;14.05;;;9.30;99.90;;;;;;4731143;30;20029;-74
2022/10/18 01:53:33;;;;;;;25.45;15.05;;;9.30;99.90;;;;;;4730964;30;20489;-74
2022/10/18 01:56:34;;;;;;;24.40;14.20;;;9.20;99.90;;;;;;4731301;30;20508;-73
2022/10/18 01:59:02;;;;;;;23.90;13.77;;;9.20;99.90;;;;;;4732777;30;20132;-74
2022/10/18 02:01:35;;;;;;;23.48;13.15;;;9.20;99.90;;;;;;4742360;30;20400;-77
2022/10/18 02:04:16;;;;;;;22.10;12.77;;;9.10;99.90;;;;;;4750904;30;20043;-73
2022/10/18 02:06:44;;;;;;;19.65;11.60;;;9.10;99.90;;;;;;4750768;30;20036;-74
2022/10/18 02:09:19;;;;;;;22.92;13.52;;;9.00;99.90;;;;;;4750435;30;20066;-73
2022/10/18 02:11:48;;;;;;;25.02;13.43;;;8.90;99.90;;;;;;4750824;30;20039;-75
2022/10/18 02:14:17;;;;;;;23.48;13.57;;;8.80;99.90;;;;;;4750658;30;20028;-76
2022/10/18 02:16:52;;;;;;;22.85;12.57;;;8.70;99.90;;;;;;4750590;30;20032;-73
2022/10/18 02:19:28;;;;;;;20.63;12.63;;;8.60;99.90;;;;;;4753635;30;20040;-73
2022/10/18 02:21:57;;;;;;;27.05;14.52;;;8.60;99.90;;;;;;4750482;30;20487;-76
2022/10/18 02:24:26;;;;;;;22.02;14.20;;;8.50;99.90;;;;;;4754532;30;20036;-73
2022/10/18 02:26:52;;;;;;;23.23;14.75;;;8.50;99.90;;;;;;4750474;30;20071;-74
2022/10/18 02:29:18;;;;;;;22.50;12.25;;;8.50;99.90;;;;;;4754388;30;20048;-75
2022/10/18 02:31:47;;;;;;;25.60;14.23;;;8.40;99.90;;;;;;4749593;30;20032;-73
2022/10/18 02:34:20;;;;;;;23.48;14.18;;;8.40;99.90;;;;;;4750487;30;20029;-74
2022/10/18 02:36:58;;;;;;;22.13;13.68;;;8.40;99.90;;;;;;4754089;30;20028;-75
2022/10/18 02:39:44;;;;;;;23.42;13.55;;;8.30;99.90;;;;;;4750506;30;20402;-74
2022/10/18 02:42:11;;;;;;;22.15;12.73;;;8.40;99.90;;;;;;4750225;30;20383;-74
2022/10/18 02:44:38;;;;;;;24.98;12.40;;;8.40;99.90;;;;;;4750221;30;20059;-73
2022/10/18 02:47:05;;;;;;;22.00;12.15;;;8.40;99.90;;;;;;4750288;30;20045;-74
2022/10/18 02:49:31;;;;;;;27.00;12.90;;;8.40;99.90;;;;;;4754150;30;20032;-75
2022/10/18 02:51:57;;;;;;;20.30;11.82;;;8.40;99.90;;;;;;4750319;30;20036;-73
2022/10/18 02:54:23;;;;;;;22.75;12.30;;;8.40;99.90;;;;;;4750574;30;20487;-74
2022/10/18 02:56:49;;;;;;;21.52;15.23;;;8.50;99.90;;;;;;4750356;30;20086;-74
2022/10/18 02:59:15;;;;;;;21.42;13.15;;;8.50;99.90;;;;;;4752906;30;20028;-73
2022/10/18 03:01:41;;;;;;;22.38;13.10;;;8.50;99.90;;;;;;4750316;30;20137;-74
2022/10/18 03:04:07;;;;;;;24.13;13.52;;;8.50;99.90;;;;;;4750174;30;20051;-73
2022/10/18 03:06:33;;;;;;;21.05;13.18;;;8.40;99.90;;;;;;4756999;30;20399;-73
2022/10/18 03:09:02;;;;;;;27.52;15.23;;;8.30;99.90;;;;;;4749777;30;20095;-73
2022/10/18 03:11:28;;;;;;;28.77;17.23;;;8.30;99.90;;;;;;4750202;30;20024;-73
2022/10/18 03:13:54;;;;;;;28.52;15.82;;;8.10;99.90;;;;;;4749802;30;20498;-75
2022/10/18 03:16:20;;;;;;;25.20;14.77;;;8.10;99.90;;;;;;4753185;30;20035;-73
2022/10/18 03:18:45;;;;;;;25.52;14.15;;;8.10;99.90;;;;;;4752363;30;20032;-73
2022/10/18 03:21:11;;;;;;;28.90;16.92;;;8.00;99.90;;;;;;4753856;29;20048;-74
2022/10/18 03:23:38;;;;;;;30.15;16.50;;;7.90;99.90;;;;;;4753168;30;20036;-73
2022/10/18 03:26:04;;;;;;;32.88;18.02;;;7.80;99.90;;;;;;4753689;30;20503;-75
2022/10/18 03:28:30;;;;;;;37.17;22.40;;;7.80;99.90;;;;;;4753503;30;20114;-73
2022/10/18 03:31:01;;;;;;;34.47;24.10;;;7.70;99.90;;;;;;4753321;30;20032;-73
2022/10/18 03:33:27;;;;;;;42.67;25.65;;;7.70;99.90;;;;;;4753583;30;20040;-73
2022/10/18 03:35:53;;;;;;;41.95;25.63;;;7.60;99.90;;;;;;4753242;30;20028;-74
2022/10/18 03:38:19;;;;;;;34.70;22.33;;;7.60;99.90;;;;;;4753074;30;20451;-74
2022/10/18 03:40:44;;;;;;;35.15;19.38;;;7.60;99.90;;;;;;4753081;30;20085;-73
2022/10/18 03:43:10;;;;;;;31.15;18.17;;;7.70;99.90;;;;;;4753112;30;20040;-73
2022/10/18 03:45:36;;;;;;;23.58;14.02;;;7.80;99.90;;;;;;4753286;30;20651;-75
2022/10/18 03:48:02;;;;;;;21.65;13.88;;;7.70;99.90;;;;;;4756663;30;20391;-73
2022/10/18 03:50:28;;;;;;;22.42;13.52;;;7.80;99.90;;;;;;4753138;30;20537;-73
2022/10/18 03:52:54;;;;;;;21.95;13.38;;;7.80;99.90;;;;;;4757375;30;20050;-73
2022/10/18 03:55:20;;;;;;;24.90;12.77;;;7.80;99.90;;;;;;4753120;30;20487;-73
2022/10/18 03:57:46;;;;;;;22.73;12.93;;;7.80;99.90;;;;;;4758337;30;20123;-73
2022/10/18 04:00:12;;;;;;;26.75;12.85;;;7.80;99.90;;;;;;4754924;30;20536;-73
2022/10/18 04:02:39;;;;;;;22.92;13.80;;;7.90;99.90;;;;;;4755625;30;20461;-75
2022/10/18 04:05:06;;;;;;;22.55;14.27;;;7.80;99.90;;;;;;4752473;30;20101;-73
2022/10/18 04:07:33;;;;;;;25.25;14.07;;;7.80;99.90;;;;;;4756192;30;20052;-73
2022/10/18 04:10:02;;;;;;;24.98;15.73;;;7.80;99.90;;;;;;4752256;30;20072;-73
2022/10/18 04:12:28;;;;;;;30.92;19.08;;;7.80;99.90;;;;;;4752601;30;20064;-76
2022/10/18 04:14:54;;;;;;;26.70;16.35;;;7.80;99.90;;;;;;4752146;30;20028;-73
2022/10/18 04:17:20;;;;;;;30.98;19.65;;;7.80;99.90;;;;;;4753133;30;20039;-75
2022/10/18 04:19:45;;;;;;;26.67;14.45;;;7.80;99.90;;;;;;4751157;30;20176;-74
2022/10/18 04:22:11;;;;;;;27.33;15.30;;;7.80;99.90;;;;;;4755238;30;20072;-73
2022/10/18 04:24:38;;;;;;;28.83;19.75;;;7.70;99.90;;;;;;4751437;30;20537;-74
2022/10/18 04:27:05;;;;;;;28.25;15.95;;;7.70;99.90;;;;;;4751530;30;20039;-73
2022/10/18 04:29:31;;;;;;;20.75;14.18;;;7.70;99.90;;;;;;4754926;30;20029;-73
2022/10/18 04:31:57;;;;;;;20.50;12.70;;;7.70;99.90;;;;;;4755408;30;20043;-73
2022/10/18 04:34:23;;;;;;;29.95;18.48;;;7.70;99.90;;;;;;4750477;30;20052;-74
2022/10/18 04:36:49;;;;;;;23.27;12.80;;;7.70;99.90;;;;;;4752267;30;20541;-73
2022/10/18 04:39:15;;;;;;;20.77;13.15;;;7.70;99.90;;;;;;4751862;30;20032;-75
2022/10/18 04:41:40;;;;;;;20.08;12.20;;;7.70;99.90;;;;;;4751711;30;20036;-75
2022/10/18 04:44:06;;;;;;;22.63;13.32;;;7.70;99.90;;;;;;4752095;30;20029;-74
2022/10/18 04:46:32;;;;;;;23.42;14.20;;;7.70;99.90;;;;;;4752045;30;20461;-74
2022/10/18 04:49:00;;;;;;;28.67;12.68;;;7.70;99.90;;;;;;4751554;30;20463;-73
2022/10/18 04:51:29;;;;;;;22.63;13.18;;;7.70;99.90;;;;;;4751205;30;20028;-75
2022/10/18 04:53:56;;;;;;;23.60;14.60;;;7.70;99.90;;;;;;4750609;30;20099;-74
2022/10/18 04:56:22;;;;;;;25.25;15.50;;;7.70;99.90;;;;;;4751101;30;20425;-74
2022/10/18 04:58:48;;;;;;;23.77;14.77;;;7.70;99.90;;;;;;4751449;30;20089;-74
2022/10/18 05:01:15;;;;;;;26.10;17.25;;;7.70;99.90;;;;;;4752838;30;20028;-74
2022/10/18 05:03:41;;;;;;;24.08;15.15;;;7.70;99.90;;;;;;4751135;30;20036;-74
2022/10/18 05:06:07;;;;;;;27.10;16.33;;;7.70;99.90;;;;;;4753776;30;20034;-75
2022/10/18 05:08:34;;;;;;;29.10;15.70;;;7.70;99.90;;;;;;4750792;30;20068;-74
2022/10/18 05:11:01;;;;;;;27.45;16.27;;;7.80;99.90;;;;;;4755293;30;20059;-75
2022/10/18 05:13:27;;;;;;;28.38;17.48;;;7.70;99.90;;;;;;4750802;30;20090;-74
2022/10/18 05:15:52;;;;;;;24.88;15.75;;;7.80;99.90;;;;;;4750935;30;20024;-74
2022/10/18 05:18:18;;;;;;;28.95;17.10;;;8.40;99.90;;;;;;4750992;30;20102;-74
2022/10/18 05:20:45;;;;;;;27.75;16.20;;;8.90;99.90;;;;;;4754333;30;20043;-74
2022/10/18 05:23:11;;;;;;;23.25;14.80;;;9.30;99.90;;;;;;4750515;30;20036;-75
2022/10/18 05:25:38;;;;;;;23.15;13.30;;;9.70;99.90;;;;;;4751034;30;20032;-75
2022/10/18 05:28:05;;;;;;;22.70;14.15;;;10.10;99.90;;;;;;4750898;30;20047;-74
2022/10/18 05:30:31;;;;;;;19.77;13.38;;;10.30;99.90;;;;;;4751030;30;20404;-75
2022/10/18 05:32:56;;;;;;;24.58;13.63;;;10.80;99.90;;;;;;4750973;30;20040;-75
2022/10/18 05:35:23;;;;;;;23.60;13.18;;;11.10;99.90;;;;;;4748986;30;20237;-75
2022/10/18 05:37:48;;;;;;;23.85;13.07;;;11.10;99.90;;;;;;4745998;30;20039;-74
2022/10/18 05:40:14;;;;;;;19.55;11.38;;;11.50;99.90;;;;;;4761999;29;20027;-75
2022/10/18 05:42:40;;;;;;;32.08;12.88;;;11.90;99.90;;;;;;4788007;30;20031;-75
2022/10/18 05:45:06;;;;;;;23.35;14.07;;;12.30;99.90;;;;;;4775261;30;20114;-75
2022/10/18 05:47:32;;;;;;;28.17;14.82;;;11.30;99.90;;;;;;4787791;30;20476;-74
2022/10/18 05:49:58;;;;;;;27.83;14.15;;;10.80;99.90;;;;;;4777271;30;20518;-74
2022/10/18 05:52:24;;;;;;;23.58;14.93;;;10.40;99.90;;;;;;4758680;30;20058;-74
2022/10/18 05:54:50;;;;;;;21.30;13.52;;;10.20;99.90;;;;;;4777846;30;20034;-76
2022/10/18 05:57:15;;;;;;;25.90;13.93;;;10.10;99.90;;;;;;4787157;30;20387;-75
2022/10/18 05:59:42;;;;;;;24.73;15.63;;;10.20;99.90;;;;;;4768211;30;20132;-75
2022/10/18 06:02:12;;;;;;;25.30;16.70;;;10.10;99.90;;;;;;4787578;30;20023;-75
2022/10/18 06:04:37;;;;;;;27.25;18.17;;;9.90;99.90;;;;;;4786296;30;20054;-75
2022/10/18 06:07:10;;;;;;;29.15;18.45;;;9.50;99.90;;;;;;4774815;30;20479;-74
2022/10/18 06:09:37;;;;;;;;;;;9.70;99.90;;;;;;4764214;30;20530;-75
2022/10/18 06:12:04;;;;;;;28.70;15.23;;;9.80;99.90;;;;;;4772091;30;20013;-75
2022/10/18 06:14:30;;;;;;;26.35;15.35;;;10.00;99.90;;;;;;4775680;30;20100;-75
2022/10/18 06:16:56;;;;;;;25.88;15.10;;;9.80;99.90;;;;;;4776926;30;20028;-75
2022/10/18 06:19:25;;;;;;;30.80;15.68;;;9.80;99.90;;;;;;4778365;30;20489;-75
2022/10/18 06:21:51;;;;;;;28.65;18.85;;;9.80;99.90;;;;;;4782339;30;20412;-74
2022/10/18 06:24:17;;;;;;;23.95;15.40;;;9.90;99.90;;;;;;4769211;30;20039;-75
2022/10/18 06:26:43;;;;;;;22.45;14.45;;;10.00;99.90;;;;;;4767515;29;20046;-75
2022/10/18 06:29:09;;;;;;;23.58;13.95;;;10.10;99.90;;;;;;4773706;30;20505;-74
2022/10/18 06:31:35;;;;;;;20.88;13.90;;;10.00;99.90;;;;;;4786719;30;20028;-74
2022/10/18 06:34:01;;;;;;;31.35;13.73;;;10.20;99.90;;;;;;4784366;30;20096;-76
2022/10/18 06:36:27;;;;;;;23.50;13.63;;;10.10;99.90;;;;;;4787043;30;20417;-75
2022/10/18 06:38:55;;;;;;;22.60;13.93;;;10.20;99.90;;;;;;4786855;30;20053;-75
2022/10/18 06:41:22;;;;;;;25.80;15.05;;;10.10;99.90;;;;;;4787038;30;20538;-76
2022/10/18 06:43:49;;;;;;;26.85;13.18;;;10.10;99.90;;;;;;4776424;30;20039;-75
2022/10/18 06:46:15;;;;;;;24.15;13.30;;;10.30;99.90;;;;;;4778855;30;20114;-76
2022/10/18 06:48:41;;;;;;;24.73;13.02;;;10.70;99.90;;;;;;4786340;30;20091;-74
2022/10/18 06:51:08;;;;;;;21.05;13.32;;;10.70;99.90;;;;;;4786245;30;20063;-76
2022/10/18 06:53:37;;;;;;;21.27;14.05;;;10.80;99.90;;;;;;4781275;30;20044;-75
2022/10/18 06:56:13;;;;;;;23.15;13.88;;;10.70;99.90;;;;;;4776628;30;20024;-75
2022/10/18 06:58:39;;;;;;;23.55;13.63;;;10.60;99.90;;;;;;4785547;30;20039;-74
2022/10/18 07:01:14;;;;;;;19.13;12.45;;;10.60;99.90;;;;;;4786736;30;20034;-76
2022/10/18 07:03:41;;;;;;;25.60;13.60;;;10.60;99.90;;;;;;4786413;30;20039;-75
2022/10/18 07:06:11;;;;;;;23.83;13.68;;;10.90;99.90;;;;;;4780013;30;20031;-76
2022/10/18 07:08:37;;;;;;;37.50;12.55;;;11.20;99.90;;;;;;4778694;30;20078;-75
2022/10/18 07:11:04;;;;;;;23.45;11.55;;;11.40;99.90;;;;;;4757808;30;20039;-75
2022/10/18 07:13:31;;;;;;;20.15;12.90;;;11.40;99.90;;;;;;4785486;30;20035;-75
2022/10/18 07:16:11;;;;;;;21.48;12.52;;;11.40;99.90;;;;;;4784964;30;20032;-75
2022/10/18 07:18:40;;;;;;;22.08;12.70;;;11.50;99.90;;;;;;4775674;30;20027;-74
2022/10/18 07:21:08;;;;;;;37.63;23.23;;;11.90;99.90;;;;;;4761930;30;20030;-75
2022/10/18 07:23:36;;;;;;;30.42;21.10;;;12.10;99.90;;;;;;4773247;30;20543;-76
2022/10/18 07:26:09;;;;;;;26.92;17.88;;;12.30;99.90;;;;;;4783044;30;20027;-76
2022/10/18 07:28:35;;;;;;;24.95;14.93;;;12.40;99.90;;;;;;4786587;30;20043;-76
2022/10/18 07:31:06;;;;;;;26.02;15.10;;;12.40;99.90;;;;;;4771213;30;20473;-75
2022/10/18 07:33:32;;;;;;;26.77;16.67;;;12.40;99.90;;;;;;4776431;30;20027;-74
2022/10/18 07:36:02;;;;;;;38.78;27.40;;;12.40;99.90;;;;;;4771361;30;20559;-76
2022/10/18 07:38:28;;;;;;;36.40;22.83;;;12.70;99.90;;;;;;4769709;30;20040;-73
2022/10/18 07:40:58;;;;;;;28.75;19.55;;;12.80;99.90;;;;;;4780022;30;20035;-75
2022/10/18 07:43:25;;;;;;;29.70;18.52;;;13.00;99.90;;;;;;4776289;30;20036;-75
2022/10/18 07:45:54;;;;;;;32.42;20.15;;;13.10;99.90;;;;;;4774506;30;20032;-75
2022/10/18 07:48:20;;;;;;;35.08;21.95;;;13.30;99.90;;;;;;4767793;30;20390;-74
2022/10/18 07:50:46;;;;;;;29.33;19.05;;;13.40;99.90;;;;;;4774497;30;20031;-75
2022/10/18 07:53:12;;;;;;;30.35;17.20;;;13.50;99.90;;;;;;4783600;30;20034;-74
2022/10/18 07:55:38;;;;;;;22.63;14.77;;;13.60;99.90;;;;;;4759334;30;20032;-75
2022/10/18 07:58:04;;;;;;;41.17;20.23;;;13.80;99.90;;;;;;4753003;30;20497;-74
2022/10/18 08:00:29;;;;;;;26.60;18.58;;;13.90;99.90;;;;;;4757117;30;20023;-74
2022/10/18 08:02:57;;;;;;;27.35;19.02;;;13.90;99.90;;;;;;4749194;30;20506;-75
2022/10/18 08:05:25;;;;;;;22.50;15.45;;;14.00;99.90;;;;;;4757682;30;20024;-74
2022/10/18 08:07:51;;;;;;;20.20;13.07;;;14.10;99.90;;;;;;4757888;30;20048;-75
2022/10/18 08:10:18;;;;;;;28.33;18.42;;;14.20;99.90;;;;;;4752371;30;20052;-75
2022/10/18 08:12:43;;;;;;;22.17;14.60;;;14.30;99.90;;;;;;4772646;30;20039;-75
2022/10/18 08:15:10;;;;;;;20.45;13.38;;;14.40;99.90;;;;;;4778253;30;20028;-75
2022/10/18 08:17:35;;;;;;;22.63;13.38;;;14.50;99.90;;;;;;4767960;30;20129;-75
2022/10/18 08:20:01;;;;;;;26.35;13.60;;;14.60;99.90;;;;;;4780404;30;20486;-75
2022/10/18 08:22:27;;;;;;;23.30;16.40;;;14.70;99.90;;;;;;4785317;30;20063;-75
2022/10/18 08:24:53;;;;;;;25.73;15.52;;;14.80;99.90;;;;;;4783348;30;20028;-75
2022/10/18 08:27:19;;;;;;;24.30;13.65;;;14.90;99.90;;;;;;4778917;30;20067;-74
2022/10/18 08:29:45;;;;;;;21.48;14.25;;;15.00;99.90;;;;;;4762034;30;20035;-76
2022/10/18 08:32:11;;;;;;;21.17;13.73;;;15.10;99.90;;;;;;4786234;30;20879;-75
2022/10/18 08:34:37;;;;;;;22.08;13.73;;;15.10;99.90;;;;;;4769419;30;20063;-75
2022/10/18 08:37:03;;;;;;;25.65;14.00;;;15.20;99.90;;;;;;4783476;30;20498;-75
2022/10/18 08:39:29;;;;;;;24.35;14.05;;;15.30;99.90;;;;;;4788431;30;20111;-75
2022/10/18 08:42:10;;;;;;;22.08;14.57;;;15.20;99.90;;;;;;4771726;30;20031;-74
2022/10/18 08:44:46;;;;;;;33.83;17.55;;;15.30;99.90;;;;;;4767035;29;20082;-72
2022/10/18 08:47:41;;;;;;;34.58;18.88;;;15.60;99.90;;;;;;4783140;30;20462;-75
2022/10/18 08:50:15;;;;;;;32.22;18.73;;;15.70;99.90;;;;;;4760088;30;20105;-73
2022/10/18 08:52:55;;;;;;;24.13;13.50;;;15.80;99.90;;;;;;4775852;30;20027;-76
2022/10/18 08:55:37;;;;;;;20.25;13.27;;;15.70;99.90;;;;;;4788533;30;20139;-72
2022/10/18 08:58:22;;;;;;;32.55;16.35;;;15.80;99.90;;;;;;4765247;30;20383;-74
2022/10/18 09:01:20;;;;;;;25.90;16.52;;;15.40;99.90;;;;;;4779022;30;20255;-74
2022/10/18 09:03:48;;;;;;;30.17;16.25;;;15.60;99.90;;;;;;4778518;30;20054;-73
2022/10/18 09:06:28;;;;;;;25.98;14.82;;;15.80;99.90;;;;;;4772507;30;20100;-74
2022/10/18 09:09:26;;;;;;;21.13;13.57;;;15.80;99.90;;;;;;4783244;30;20070;-76
2022/10/18 09:12:23;;;;;;;23.42;13.95;;;16.00;99.90;;;;;;4762657;30;20047;-72
2022/10/18 09:15:00;;;;;;;25.15;14.38;;;15.70;99.90;;;;;;4762242;30;20047;-74
2022/10/18 09:17:58;;;;;;;25.55;14.38;;;16.10;99.90;;;;;;4773314;30;20093;-74
2022/10/18 09:20:49;;;;;;;23.25;13.77;;;16.20;99.90;;;;;;4771624;30;20051;-75
2022/10/18 09:23:27;;;;;;;30.65;12.75;;;16.20;99.90;;;;;;4772183;30;20036;-71
2022/10/18 09:26:16;;;;;;;23.15;14.40;;;16.40;99.90;;;;;;4776647;30;20070;-73
2022/10/18 09:29:04;;;;;;;28.55;15.27;;;16.50;99.90;;;;;;4771213;30;20130;-73
2022/10/18 09:32:02;;;;;;;25.98;14.80;;;16.60;99.90;;;;;;4782305;30;20028;-74
2022/10/18 09:34:52;;;;;;;22.48;13.88;;;16.50;99.90;;;;;;4757310;30;20171;-72
2022/10/18 09:37:20;;;;;;;30.23;16.27;;;16.50;99.90;;;;;;4781626;30;20380;-73
2022/10/18 09:39:48;;;;;;;18.80;12.70;;;16.60;99.90;;;;;;4772237;30;20042;-72
2022/10/18 09:42:17;;;;;;;24.65;13.25;;;16.70;99.90;;;;;;4768001;30;20398;-73
2022/10/18 09:45:25;;;;;;;22.35;13.98;;;16.90;99.90;;;;;;4783477;30;20036;-73
2022/10/18 09:48:12;;;;;;;24.02;15.05;;;16.90;99.90;;;;;;4755304;30;20077;-73
2022/10/18 09:50:51;;;;;;;24.48;13.82;;;17.10;99.90;;;;;;4771703;30;20093;-73
2022/10/18 09:53:36;;;;;;;24.05;13.10;;;17.10;99.90;;;;;;4766978;30;20040;-73
2022/10/18 09:56:14;;;;;;;19.90;12.35;;;17.20;99.90;;;;;;4786476;30;20038;-73
2022/10/18 09:58:45;;;;;;;22.00;11.90;;;17.30;99.90;;;;;;4784249;30;20036;-72
2022/10/18 10:01:20;;;;;;;20.27;12.88;;;17.40;99.90;;;;;;4787614;30;20137;-73
2022/10/18 10:03:46;;;;;;;22.20;13.65;;;17.50;99.90;;;;;;4775300;30;20032;-73
2022/10/18 10:06:13;;;;;;;24.27;14.32;;;17.60;99.90;;;;;;4757564;30;20024;-73
2022/10/18 10:08:41;;;;;;;26.98;12.82;;;17.70;99.90;;;;;;4749625;30;20098;-72
2022/10/18 10:11:25;;;;;;;22.40;12.73;;;17.70;99.90;;;;;;4752781;30;20035;-73
2022/10/18 10:13:51;;;;;;;18.65;12.48;;;17.70;99.90;;;;;;4750135;30;20044;-72
2022/10/18 10:16:17;;;;;;;21.15;13.18;;;17.80;99.90;;;;;;4750103;30;20077;-72
2022/10/18 10:18:43;;;;;;;15.57;9.57;;;17.80;99.90;;;;;;4750482;30;20117;-72
2022/10/18 10:21:14;;;;;;;23.75;10.50;;;17.90;99.90;;;;;;4749776;30;20028;-71
2022/10/18 10:23:50;;;;;;;20.45;11.52;;;18.00;99.90;;;;;;4762694;30;20035;-73
2022/10/18 10:26:26;;;;;;;22.75;10.68;;;18.10;99.90;;;;;;4775089;29;20039;-73
2022/10/18 10:28:52;;;;;;;22.35;11.35;;;18.10;99.90;;;;;;4772478;30;20039;-71
2022/10/18 10:31:28;;;;;;;19.05;11.60;;;18.20;99.90;;;;;;4779610;30;20032;-73
2022/10/18 10:34:18;;;;;;;14.07;8.15;;;18.30;99.90;;;;;;4763513;30;20046;-73
2022/10/18 10:36:47;;;;;;;13.82;8.13;;;18.40;99.90;;;;;;4786398;30;20084;-73
2022/10/18 10:39:17;;;;;;;15.70;9.60;;;18.50;99.90;;;;;;4787028;30;20031;-73
2022/10/18 10:42:04;;;;;;;15.70;7.88;;;18.60;99.90;;;;;;4786947;30;20072;-73
2022/10/18 10:44:34;;;;;;;12.38;7.57;;;18.60;99.90;;;;;;4786952;30;20082;-73
2022/10/18 10:47:01;;;;;;;13.10;7.22;;;18.60;99.90;;;;;;4786782;30;20034;-73
2022/10/18 10:49:49;;;;;;;15.45;8.23;;;18.60;99.90;;;;;;4786756;30;20035;-73
2022/10/18 10:52:26;;;;;;;14.18;8.13;;;18.60;99.90;;;;;;4786332;29;20039;-73
2022/10/18 10:54:54;;;;;;;16.60;8.10;;;18.70;99.90;;;;;;4787123;29;20031;-73
2022/10/18 10:57:27;;;;;;;15.68;7.70;;;18.80;99.90;;;;;;4786495;30;20111;-73
2022/10/18 10:59:55;;;;;;;13.98;7.65;;;18.80;99.90;;;;;;4787080;30;20043;-73
2022/10/18 11:02:31;;;;;;;12.50;8.00;;;18.70;99.90;;;;;;4786479;30;20043;-72
2022/10/18 11:05:21;;;;;;;15.00;8.07;;;18.80;99.90;;;;;;4786875;30;20031;-73
2022/10/18 11:07:51;;;;;;;12.52;7.57;;;18.90;99.90;;;;;;4761639;30;20052;-73
2022/10/18 11:10:20;;;;;;;14.90;8.80;;;18.80;99.90;;;;;;4786325;30;20079;-73
2022/10/18 11:13:15;;;;;;;14.60;7.97;;;18.90;99.90;;;;;;4786454;30;20038;-73
2022/10/18 11:15:53;;;;;;;14.38;7.55;;;18.90;99.90;;;;;;4783249;30;20039;-73
2022/10/18 11:18:33;;;;;;;12.00;7.35;;;18.90;99.90;;;;;;4786501;30;20042;-73
2022/10/18 11:21:13;;;;;;;12.60;7.40;;;19.00;99.90;;;;;;4786273;30;20364;-73
2022/10/18 11:23:42;;;;;;;16.75;8.75;;;19.10;99.90;;;;;;4786824;30;20066;-73
2022/10/18 11:26:11;;;;;;;13.82;7.30;;;19.10;99.90;;;;;;4786652;30;20390;-73
2022/10/18 11:28:43;;;;;;;12.73;6.43;;;19.10;99.90;;;;;;4785957;30;20049;-74
2022/10/18 11:31:12;;;;;;;17.65;6.28;;;19.10;99.90;;;;;;4787060;30;20036;-73
2022/10/18 11:33:58;;;;;;;12.02;7.18;;;19.10;99.90;;;;;;4786575;30;20130;-73
2022/10/18 11:36:29;;;;;;;12.77;6.82;;;19.20;99.90;;;;;;4786351;30;20062;-73
2022/10/18 11:39:12;;;;;;;12.85;7.60;;;19.20;99.90;;;;;;4787364;29;20043;-73
2022/10/18 11:42:13;;;;;;;12.20;6.97;;;19.20;99.90;;;;;;4790016;30;20063;-73
2022/10/18 11:44:51;;;;;;;9.93;5.82;;;19.20;99.90;;;;;;4789428;29;20034;-73
2022/10/18 11:47:25;;;;;;;16.00;9.23;;;19.20;99.90;;;;;;4789952;30;20036;-73
2022/10/18 11:49:58;;;;;;;15.30;8.40;;;19.10;99.90;;;;;;4789750;30;20091;-73
2022/10/18 11:52:33;;;;;;;16.23;8.35;;;19.00;99.90;;;;;;4789636;30;20038;-73
2022/10/18 11:55:05;;;;;;;13.73;7.72;;;19.00;99.90;;;;;;4789593;30;20023;-73
2022/10/18 11:58:08;;;;;;;14.00;8.35;;;19.10;99.90;;;;;;4789359;30;20425;-73
2022/10/18 12:01:03;;;;;;;14.18;7.90;;;19.10;99.90;;;;;;4781541;30;20035;-73
2022/10/18 12:03:29;;;;;;;14.38;8.07;;;19.00;99.90;;;;;;4788836;30;20032;-73
2022/10/18 12:05:57;;;;;;;16.30;8.40;;;19.10;99.90;;;;;;4785146;30;20089;-72
2022/10/18 12:08:35;;;;;;;15.13;8.07;;;19.10;99.90;;;;;;4773998;30;20055;-73
2022/10/18 12:11:08;;;;;;;12.40;8.45;;;19.20;99.90;;;;;;4784479;30;20066;-73
2022/10/18 12:13:51;;;;;;;15.95;7.32;;;19.20;99.90;;;;;;4789121;30;20066;-73
2022/10/18 12:16:21;;;;;;;;;;;19.20;99.90;;;;;;4788988;30;20035;-73
2022/10/18 12:19:01;;;;;;;14.20;7.28;;;19.20;99.90;;;;;;4788691;30;19950;-73
2022/10/18 12:21:30;;;;;;;15.98;8.52;;;19.20;99.90;;;;;;4788530;30;20040;-72
2022/10/18 12:24:07;;;;;;;14.95;8.95;;;19.40;99.90;;;;;;4788951;29;20019;-73
2022/10/18 12:26:34;;;;;;;18.55;7.90;;;19.40;99.90;;;;;;4788165;30;20397;-73
2022/10/18 12:29:31;;;;;;;19.02;8.07;;;19.50;99.90;;;;;;4787976;30;20122;-73
2022/10/18 12:32:04;;;;;;;13.40;8.43;;;19.50;99.90;;;;;;4772568;30;20088;-73
2022/10/18 12:34:56;;;;;;;20.27;8.75;;;19.60;99.90;;;;;;4789013;30;20110;-73
2022/10/18 12:37:31;;;;;;;20.38;7.57;;;19.60;99.90;;;;;;4715474;30;20381;-73
2022/10/18 12:40:21;;;;;;;16.75;7.25;;;19.60;99.90;;;;;;4715404;30;20486;-73
2022/10/18 12:42:49;;;;;;;16.27;6.82;;;19.70;99.90;;;;;;4716123;30;20137;-73
2022/10/18 12:45:27;;;;;;;17.30;7.97;;;19.60;99.90;;;;;;4715264;30;20066;-73
2022/10/18 12:47:57;;;;;;;16.60;8.43;;;19.70;99.90;;;;;;4714972;30;20504;-73
2022/10/18 12:50:31;;;;;;;15.05;7.18;;;19.70;99.90;;;;;;4714404;30;20428;-73
2022/10/18 12:53:17;;;;;;;14.48;7.07;;;19.70;99.90;;;;;;4715253;30;20045;-73
2022/10/18 12:55:50;;;;;;;13.45;7.65;;;19.70;99.90;;;;;;4715300;30;20041;-73